KBWD/BWD METAR and TAF weather

Enter ICAO airport designator
Station Type Date Time Source
KBWD METAR 2020/01/21 15:35 UTC NOAA

KBWD 211535Z AUTO 15009KT 10SM OVC060 09/M01 A3042 RMK AO1


Station Type Date Time Source
KBWD Decoded METAR 2020/01/21 15:35 UTC NOAA

Brownwood, Brownwood Regional Airport, TX, United States (KBWD) 31-48N 098-57W
Jan 21, 2020 - 10:35 AM EST / 2020.01.21 1535 UTC
Wind: from the SSE (150 degrees) at 10 MPH (9 KT):0
Visibility: 10 mile(s):0
Sky conditions: overcast
Temperature: 48 F (9 C)
Dew Point: 30 F (-1 C)
Relative Humidity: 49%
Pressure (altimeter): 30.42 in. Hg (1030 hPa)
ob: KBWD 211535Z AUTO 15009KT 10SM OVC060 09/M01 A3042 RMK AO1
cycle: 15

Station Type Date Time Source
KBWD TAF UTC NOAA

Error!

Example: see airport list